Terminal Aerodrome Forecast
Issued by NWS

Home | Current Version | Previous Version | Text Only | Print | Product List | Glossary On
Versions: 1 2 3 4 5 6 7 8 9 10 11 12 13 14 15
156
FTUS41 KPBZ 161721
TAFZZV
TAF
KZZV 161721Z 1618/1718 14003KT P6SM SCT060
     FM170800 00000KT 5SM BR BKN060
     FM171300 16003KT P6SM VCSH BKN070
     FM171600 17004KT P6SM VCTS BKN080CB=

USA.gov is the U.S. government's official web portal to all federal, state and local government web resources and services.